Airport View

Enter AWOS ICAO identifier for current METAR.

ex. KFNL

KHMN 051158Z AUTO 11004KT 10SM CLR 23/11 A3006 RMK AO2 SLP099 T02340114 10300 20234 50003 $

5 Aug 2020 12:56

Other Area AWOS: KALM - KSRR - KLRU - KBIF

TAF KHMN 050925Z 0509/0615 VRB06KT 9999 SKC QNH3011INS BECMG 0513/0514 26009KT 9999 SKC QNH3006INS BECMG 0517/0518 28009KT 9999 SCT140 QNH3001INS BECMG 0521/0522 25010KT 9999 SCT120 SCT160 QNH2998INS TS OMTNS TEMPO 0523/0602 26012G18KT SCT120 BKN140 BECMG 0603/0604 VRB06KT 9999 SCT120 SCT160 QNH3002INS TEMPO 0606/0608 31010G20KT BECMG 0611/0612 VRB06KT 9999 FEW120 SCT160 QNH3007INS TX36/0522Z TN21/0513Z